sensor_id;sensor_type;location;lat;lon;timestamp;pressure;altitude;pressure_sealevel;temperature;humidity
71970;BME280;59838;52.152;5.436;2023-04-19T00:00:03;102951.19;;;7.68;88.36
71970;BME280;59838;52.152;5.436;2023-04-19T00:02:33;102958.94;;;7.68;88.10
71970;BME280;59838;52.152;5.436;2023-04-19T00:05:00;102946.81;;;7.69;88.18
71970;BME280;59838;52.152;5.436;2023-04-19T00:07:28;102957.06;;;7.71;88.26
71970;BME280;59838;52.152;5.436;2023-04-19T00:09:54;102948.59;;;7.68;88.31
71970;BME280;59838;52.152;5.436;2023-04-19T00:12:21;102954.47;;;7.71;88.02
71970;BME280;59838;52.152;5.436;2023-04-19T00:14:47;102953.38;;;7.62;88.32
71970;BME280;59838;52.152;5.436;2023-04-19T00:17:13;102947.28;;;7.39;89.12
71970;BME280;59838;52.152;5.436;2023-04-19T00:19:40;102955.91;;;7.26;89.31
71970;BME280;59838;52.152;5.436;2023-04-19T00:22:07;102955.94;;;7.13;90.52
71970;BME280;59838;52.152;5.436;2023-04-19T00:24:33;102949.44;;;7.08;90.92
71970;BME280;59838;52.152;5.436;2023-04-19T00:27:00;102954.63;;;7.08;91.32
71970;BME280;59838;52.152;5.436;2023-04-19T00:29:27;102944.38;;;7.06;91.24
71970;BME280;59838;52.152;5.436;2023-04-19T00:31:53;102958.22;;;7.05;91.98
71970;BME280;59838;52.152;5.436;2023-04-19T00:34:20;102944.81;;;7.00;92.04
71970;BME280;59838;52.152;5.436;2023-04-19T00:36:46;102950.09;;;6.99;91.91
71970;BME280;59838;52.152;5.436;2023-04-19T00:39:13;102944.91;;;6.99;92.14
71970;BME280;59838;52.152;5.436;2023-04-19T00:41:40;102945.94;;;6.96;92.34
71970;BME280;59838;52.152;5.436;2023-04-19T00:44:07;102942.66;;;6.94;92.16
71970;BME280;59838;52.152;5.436;2023-04-19T00:46:35;102940.28;;;6.91;92.24
71970;BME280;59838;52.152;5.436;2023-04-19T00:49:02;102947.31;;;6.89;92.53
71970;BME280;59838;52.152;5.436;2023-04-19T00:51:29;102936.38;;;6.85;92.46
71970;BME280;59838;52.152;5.436;2023-04-19T00:53:57;102935.84;;;6.80;92.62
71970;BME280;59838;52.152;5.436;2023-04-19T00:56:26;102938.00;;;6.73;93.25
71970;BME280;59838;52.152;5.436;2023-04-19T00:58:53;102934.22;;;6.66;93.78
71970;BME280;59838;52.152;5.436;2023-04-19T01:01:19;102931.31;;;6.71;94.13
71970;BME280;59838;52.152;5.436;2023-04-19T01:03:46;102926.34;;;6.68;94.32
71970;BME280;59838;52.152;5.436;2023-04-19T01:06:13;102929.97;;;6.65;94.62
71970;BME280;59838;52.152;5.436;2023-04-19T01:08:39;102919.63;;;6.65;94.74
71970;BME280;59838;52.152;5.436;2023-04-19T01:11:06;102919.31;;;6.70;94.99
71970;BME280;59838;52.152;5.436;2023-04-19T01:13:35;102919.81;;;6.75;95.25
71970;BME280;59838;52.152;5.436;2023-04-19T01:16:02;102923.88;;;6.79;95.60
71970;BME280;59838;52.152;5.436;2023-04-19T01:18:28;102922.59;;;6.85;95.66
71970;BME280;59838;52.152;5.436;2023-04-19T01:21:00;102923.34;;;6.87;95.60
71970;BME280;59838;52.152;5.436;2023-04-19T01:23:27;102923.63;;;6.95;95.78
71970;BME280;59838;52.152;5.436;2023-04-19T01:25:53;102926.94;;;6.97;95.59
71970;BME280;59838;52.152;5.436;2023-04-19T01:28:20;102924.84;;;7.02;95.66
71970;BME280;59838;52.152;5.436;2023-04-19T01:30:46;102922.88;;;7.06;95.54
71970;BME280;59838;52.152;5.436;2023-04-19T01:33:16;102925.13;;;7.10;95.47
71970;BME280;59838;52.152;5.436;2023-04-19T01:35:42;102927.50;;;7.13;95.39
71970;BME280;59838;52.152;5.436;2023-04-19T01:38:09;102914.16;;;7.20;95.12
71970;BME280;59838;52.152;5.436;2023-04-19T01:40:35;102909.69;;;7.22;95.26
71970;BME280;59838;52.152;5.436;2023-04-19T01:43:01;102921.38;;;7.27;95.07
71970;BME280;59838;52.152;5.436;2023-04-19T01:45:28;102919.28;;;7.32;95.32
71970;BME280;59838;52.152;5.436;2023-04-19T01:47:55;102916.47;;;7.36;95.49
71970;BME280;59838;52.152;5.436;2023-04-19T01:50:21;102919.13;;;7.47;94.80
71970;BME280;59838;52.152;5.436;2023-04-19T01:52:48;102920.41;;;7.53;94.94
71970;BME280;59838;52.152;5.436;2023-04-19T01:55:14;102921.13;;;7.55;94.66
71970;BME280;59838;52.152;5.436;2023-04-19T01:57:41;102926.81;;;7.60;94.54
71970;BME280;59838;52.152;5.436;2023-04-19T02:00:08;102916.84;;;7.66;94.33
71970;BME280;59838;52.152;5.436;2023-04-19T02:02:36;102923.44;;;7.71;94.23
71970;BME280;59838;52.152;5.436;2023-04-19T02:05:07;102919.69;;;7.75;94.06
71970;BME280;59838;52.152;5.436;2023-04-19T02:07:34;102918.84;;;7.74;94.31
71970;BME280;59838;52.152;5.436;2023-04-19T02:10:00;102917.69;;;7.78;94.38
71970;BME280;59838;52.152;5.436;2023-04-19T02:12:27;102915.59;;;7.83;93.94
71970;BME280;59838;52.152;5.436;2023-04-19T02:14:54;102911.25;;;7.84;93.89
71970;BME280;59838;52.152;5.436;2023-04-19T02:17:25;102913.25;;;7.92;93.86
71970;BME280;59838;52.152;5.436;2023-04-19T02:19:51;102913.16;;;7.93;93.67
71970;BME280;59838;52.152;5.436;2023-04-19T02:22:18;102925.06;;;7.96;93.51
71970;BME280;59838;52.152;5.436;2023-04-19T02:24:45;102916.31;;;7.97;93.67
71970;BME280;59838;52.152;5.436;2023-04-19T02:27:12;102910.00;;;8.01;93.52
71970;BME280;59838;52.152;5.436;2023-04-19T02:29:39;102914.34;;;8.00;93.44
71970;BME280;59838;52.152;5.436;2023-04-19T02:32:05;102913.41;;;8.01;93.39
71970;BME280;59838;52.152;5.436;2023-04-19T02:34:33;102922.59;;;8.05;93.56
71970;BME280;59838;52.152;5.436;2023-04-19T02:37:00;102922.50;;;8.07;93.27
71970;BME280;59838;52.152;5.436;2023-04-19T02:39:27;102927.44;;;8.10;93.33
71970;BME280;59838;52.152;5.436;2023-04-19T02:41:54;102922.16;;;8.12;92.89
71970;BME280;59838;52.152;5.436;2023-04-19T02:44:21;102928.84;;;8.14;92.77
71970;BME280;59838;52.152;5.436;2023-04-19T02:46:48;102930.06;;;8.21;92.15
71970;BME280;59838;52.152;5.436;2023-04-19T02:49:16;102925.56;;;8.23;92.17
71970;BME280;59838;52.152;5.436;2023-04-19T02:51:43;102916.16;;;8.22;92.17
71970;BME280;59838;52.152;5.436;2023-04-19T02:54:10;102923.91;;;8.22;92.12
71970;BME280;59838;52.152;5.436;2023-04-19T02:56:37;102914.50;;;8.21;92.11
71970;BME280;59838;52.152;5.436;2023-04-19T02:59:03;102915.81;;;8.27;91.85
71970;BME280;59838;52.152;5.436;2023-04-19T03:01:30;102912.41;;;8.27;91.62
71970;BME280;59838;52.152;5.436;2023-04-19T03:03:57;102915.69;;;8.29;91.59
71970;BME280;59838;52.152;5.436;2023-04-19T03:06:24;102916.75;;;8.26;92.02
71970;BME280;59838;52.152;5.436;2023-04-19T03:08:51;102918.28;;;8.29;91.72
71970;BME280;59838;52.152;5.436;2023-04-19T03:11:18;102918.16;;;8.30;91.55
71970;BME280;59838;52.152;5.436;2023-04-19T03:13:44;102923.94;;;8.34;91.09
71970;BME280;59838;52.152;5.436;2023-04-19T03:16:10;102915.81;;;8.38;91.08
71970;BME280;59838;52.152;5.436;2023-04-19T03:18:37;102909.00;;;8.37;91.23
71970;BME280;59838;52.152;5.436;2023-04-19T03:21:04;102912.41;;;8.38;91.18
71970;BME280;59838;52.152;5.436;2023-04-19T03:23:30;102916.41;;;8.42;90.95
71970;BME280;59838;52.152;5.436;2023-04-19T03:25:57;102915.38;;;8.45;90.62
71970;BME280;59838;52.152;5.436;2023-04-19T03:28:23;102916.94;;;8.47;90.37
71970;BME280;59838;52.152;5.436;2023-04-19T03:30:50;102910.78;;;8.48;90.26
71970;BME280;59838;52.152;5.436;2023-04-19T03:33:16;102904.78;;;8.48;90.25
71970;BME280;59838;52.152;5.436;2023-04-19T03:35:43;102905.38;;;8.51;89.93
71970;BME280;59838;52.152;5.436;2023-04-19T03:38:10;102905.16;;;8.54;89.53
71970;BME280;59838;52.152;5.436;2023-04-19T03:40:37;102913.72;;;8.55;89.86
71970;BME280;59838;52.152;5.436;2023-04-19T03:43:03;102908.78;;;8.52;89.45
71970;BME280;59838;52.152;5.436;2023-04-19T03:45:30;102906.31;;;8.50;89.74
71970;BME280;59838;52.152;5.436;2023-04-19T03:47:56;102896.06;;;8.49;89.58
71970;BME280;59838;52.152;5.436;2023-04-19T03:50:25;102898.28;;;8.42;89.71
71970;BME280;59838;52.152;5.436;2023-04-19T03:52:51;102900.28;;;8.38;89.64
71970;BME280;59838;52.152;5.436;2023-04-19T03:55:19;102917.25;;;8.31;89.86
71970;BME280;59838;52.152;5.436;2023-04-19T03:57:45;102906.75;;;8.21;89.98
71970;BME280;59838;52.152;5.436;2023-04-19T04:00:12;102901.31;;;8.13;89.75
71970;BME280;59838;52.152;5.436;2023-04-19T04:02:38;102903.53;;;8.06;90.00
71970;BME280;59838;52.152;5.436;2023-04-19T04:05:06;102905.75;;;8.00;90.35
71970;BME280;59838;52.152;5.436;2023-04-19T04:07:33;102905.16;;;7.96;90.46
71970;BME280;59838;52.152;5.436;2023-04-19T04:09:59;102901.16;;;7.92;90.48
71970;BME280;59838;52.152;5.436;2023-04-19T04:12:26;102908.53;;;7.85;90.62
71970;BME280;59838;52.152;5.436;2023-04-19T04:14:52;102913.00;;;7.83;90.88
71970;BME280;59838;52.152;5.436;2023-04-19T04:17:19;102907.00;;;7.83;90.65
71970;BME280;59838;52.152;5.436;2023-04-19T04:19:46;102913.34;;;7.79;91.03
71970;BME280;59838;52.152;5.436;2023-04-19T04:22:12;102907.69;;;7.74;90.98
71970;BME280;59838;52.152;5.436;2023-04-19T04:24:40;102912.03;;;7.73;90.92
71970;BME280;59838;52.152;5.436;2023-04-19T04:27:07;102900.59;;;7.64;90.90
71970;BME280;59838;52.152;5.436;2023-04-19T04:29:36;102914.69;;;7.60;91.00
71970;BME280;59838;52.152;5.436;2023-04-19T04:32:07;102903.88;;;7.55;90.85
71970;BME280;59838;52.152;5.436;2023-04-19T04:34:35;102909.03;;;7.55;90.84
71970;BME280;59838;52.152;5.436;2023-04-19T04:37:02;102908.66;;;7.48;90.71
71970;BME280;59838;52.152;5.436;2023-04-19T04:39:29;102907.31;;;7.43;90.63
71970;BME280;59838;52.152;5.436;2023-04-19T04:41:55;102909.91;;;7.43;90.55
71970;BME280;59838;52.152;5.436;2023-04-19T04:44:24;102906.72;;;7.39;90.41
71970;BME280;59838;52.152;5.436;2023-04-19T04:46:53;102905.06;;;7.38;90.36
71970;BME280;59838;52.152;5.436;2023-04-19T04:49:19;102902.00;;;7.33;90.47
71970;BME280;59838;52.152;5.436;2023-04-19T04:51:46;102911.72;;;7.29;90.56
71970;BME280;59838;52.152;5.436;2023-04-19T04:54:12;102908.53;;;7.26;90.38
71970;BME280;59838;52.152;5.436;2023-04-19T04:56:39;102917.06;;;7.15;90.97
71970;BME280;59838;52.152;5.436;2023-04-19T04:59:05;102916.06;;;7.05;91.44
71970;BME280;59838;52.152;5.436;2023-04-19T05:01:33;102913.47;;;7.05;91.65
71970;BME280;59838;52.152;5.436;2023-04-19T05:03:59;102927.94;;;7.07;91.60
71970;BME280;59838;52.152;5.436;2023-04-19T05:06:26;102932.16;;;7.08;91.59
71970;BME280;59838;52.152;5.436;2023-04-19T05:08:53;102929.47;;;7.10;91.79
71970;BME280;59838;52.152;5.436;2023-04-19T05:11:19;102923.72;;;7.55;90.20
71970;BME280;59838;52.152;5.436;2023-04-19T05:13:46;102926.34;;;7.66;87.84
71970;BME280;59838;52.152;5.436;2023-04-19T05:16:12;102919.00;;;7.48;88.66
71970;BME280;59838;52.152;5.436;2023-04-19T05:18:39;102930.91;;;7.62;88.06
71970;BME280;59838;52.152;5.436;2023-04-19T05:21:05;102925.84;;;7.85;86.65
71970;BME280;59838;52.152;5.436;2023-04-19T05:23:36;102920.53;;;7.86;85.63
71970;BME280;59838;52.152;5.436;2023-04-19T05:26:03;102932.88;;;7.83;85.26
71970;BME280;59838;52.152;5.436;2023-04-19T05:28:29;102923.72;;;7.55;86.38
71970;BME280;59838;52.152;5.436;2023-04-19T05:30:56;102932.59;;;7.39;86.88
71970;BME280;59838;52.152;5.436;2023-04-19T05:33:23;102926.34;;;7.42;86.14
71970;BME280;59838;52.152;5.436;2023-04-19T05:35:49;102933.06;;;7.44;85.21
71970;BME280;59838;52.152;5.436;2023-04-19T05:38:16;102926.53;;;7.52;84.97
71970;BME280;59838;52.152;5.436;2023-04-19T05:40:43;102933.84;;;7.93;83.80
71970;BME280;59838;52.152;5.436;2023-04-19T05:43:10;102926.22;;;8.84;78.92
71970;BME280;59838;52.152;5.436;2023-04-19T05:45:36;102929.75;;;9.91;74.41
71970;BME280;59838;52.152;5.436;2023-04-19T05:48:03;102925.72;;;10.81;71.50
71970;BME280;59838;52.152;5.436;2023-04-19T05:50:30;102918.81;;;11.40;66.96
71970;BME280;59838;52.152;5.436;2023-04-19T05:52:57;102926.72;;;11.09;67.23
71970;BME280;59838;52.152;5.436;2023-04-19T05:55:23;102925.03;;;10.38;69.60
71970;BME280;59838;52.152;5.436;2023-04-19T05:57:50;102919.28;;;10.23;67.56
71970;BME280;59838;52.152;5.436;2023-04-19T06:00:17;102925.84;;;10.18;68.12
71970;BME280;59838;52.152;5.436;2023-04-19T06:02:44;102930.66;;;10.43;69.17
71970;BME280;59838;52.152;5.436;2023-04-19T06:05:10;102926.44;;;10.31;68.02
71970;BME280;59838;52.152;5.436;2023-04-19T06:07:37;102921.31;;;10.20;66.58
71970;BME280;59838;52.152;5.436;2023-04-19T06:10:12;102927.94;;;10.03;67.81
71970;BME280;59838;52.152;5.436;2023-04-19T06:12:39;102924.44;;;10.35;67.22
71970;BME280;59838;52.152;5.436;2023-04-19T06:15:05;102921.16;;;10.12;65.72
71970;BME280;59838;52.152;5.436;2023-04-19T06:17:32;102934.53;;;10.59;63.63
71970;BME280;59838;52.152;5.436;2023-04-19T06:19:59;102920.84;;;12.05;61.16
71970;BME280;59838;52.152;5.436;2023-04-19T06:22:25;102910.94;;;12.28;58.05
71970;BME280;59838;52.152;5.436;2023-04-19T06:24:51;102908.47;;;12.82;57.45
71970;BME280;59838;52.152;5.436;2023-04-19T06:27:18;102925.88;;;13.09;53.78
71970;BME280;59838;52.152;5.436;2023-04-19T06:29:44;102920.38;;;12.67;54.76
71970;BME280;59838;52.152;5.436;2023-04-19T06:32:11;102933.66;;;12.36;51.94
71970;BME280;59838;52.152;5.436;2023-04-19T06:34:37;102919.63;;;12.47;54.36
71970;BME280;59838;52.152;5.436;2023-04-19T06:37:04;102918.00;;;12.36;50.83
71970;BME280;59838;52.152;5.436;2023-04-19T06:39:30;102914.50;;;12.55;52.95
71970;BME280;59838;52.152;5.436;2023-04-19T06:41:57;102927.47;;;12.37;52.96
71970;BME280;59838;52.152;5.436;2023-04-19T06:44:23;102932.91;;;12.06;51.84
71970;BME280;59838;52.152;5.436;2023-04-19T06:46:50;102916.53;;;12.33;52.01
71970;BME280;59838;52.152;5.436;2023-04-19T06:49:16;102921.38;;;12.56;48.77
71970;BME280;59838;52.152;5.436;2023-04-19T06:51:43;102928.44;;;12.36;48.51
71970;BME280;59838;52.152;5.436;2023-04-19T06:54:09;102939.41;;;12.39;48.85
71970;BME280;59838;52.152;5.436;2023-04-19T06:56:46;102942.25;;;12.09;49.45
71970;BME280;59838;52.152;5.436;2023-04-19T06:59:15;102925.78;;;11.88;49.42
71970;BME280;59838;52.152;5.436;2023-04-19T07:01:42;102937.19;;;12.07;49.45
71970;BME280;59838;52.152;5.436;2023-04-19T07:04:10;102945.13;;;12.05;49.78
71970;BME280;59838;52.152;5.436;2023-04-19T07:06:38;102939.75;;;12.17;49.43
71970;BME280;59838;52.152;5.436;2023-04-19T07:09:06;102927.88;;;12.42;49.06
71970;BME280;59838;52.152;5.436;2023-04-19T07:11:33;102929.41;;;12.35;50.34
71970;BME280;59838;52.152;5.436;2023-04-19T07:13:59;102930.84;;;12.57;48.32
71970;BME280;59838;52.152;5.436;2023-04-19T07:16:27;102942.91;;;12.58;47.59
71970;BME280;59838;52.152;5.436;2023-04-19T07:18:54;102924.75;;;12.66;48.84
71970;BME280;59838;52.152;5.436;2023-04-19T07:21:21;102924.66;;;12.58;47.97
71970;BME280;59838;52.152;5.436;2023-04-19T07:23:47;102923.81;;;12.30;49.16
71970;BME280;59838;52.152;5.436;2023-04-19T07:26:14;102928.44;;;12.36;49.21
71970;BME280;59838;52.152;5.436;2023-04-19T07:28:40;102943.78;;;12.39;49.73
71970;BME280;59838;52.152;5.436;2023-04-19T07:31:07;102929.31;;;12.27;49.76
71970;BME280;59838;52.152;5.436;2023-04-19T07:33:33;102930.47;;;12.42;48.80
71970;BME280;59838;52.152;5.436;2023-04-19T07:36:00;102938.63;;;12.19;49.04
71970;BME280;59838;52.152;5.436;2023-04-19T07:38:26;102932.63;;;12.19;47.46
71970;BME280;59838;52.152;5.436;2023-04-19T07:40:53;102930.41;;;12.24;49.57
71970;BME280;59838;52.152;5.436;2023-04-19T07:43:20;102933.78;;;12.72;48.25
71970;BME280;59838;52.152;5.436;2023-04-19T07:45:46;102933.44;;;12.85;46.55
71970;BME280;59838;52.152;5.436;2023-04-19T07:48:13;102936.81;;;12.95;48.10
71970;BME280;59838;52.152;5.436;2023-04-19T07:50:39;102950.00;;;12.66;46.30
71970;BME280;59838;52.152;5.436;2023-04-19T07:53:06;102932.44;;;12.68;47.44
71970;BME280;59838;52.152;5.436;2023-04-19T07:55:32;102941.63;;;12.72;47.61
71970;BME280;59838;52.152;5.436;2023-04-19T07:58:00;102944.06;;;12.73;48.01
71970;BME280;59838;52.152;5.436;2023-04-19T08:00:27;102937.72;;;12.76;47.73
71970;BME280;59838;52.152;5.436;2023-04-19T08:02:55;102941.16;;;11.92;49.35
71970;BME280;59838;52.152;5.436;2023-04-19T08:05:24;102948.81;;;11.34;48.69
71970;BME280;59838;52.152;5.436;2023-04-19T08:07:52;102945.53;;;11.13;51.35
71970;BME280;59838;52.152;5.436;2023-04-19T08:10:19;102938.91;;;10.99;49.33
71970;BME280;59838;52.152;5.436;2023-04-19T08:12:48;102945.75;;;11.00;52.22
71970;BME280;59838;52.152;5.436;2023-04-19T08:15:32;102941.13;;;11.13;50.82
71970;BME280;59838;52.152;5.436;2023-04-19T08:18:01;102942.31;;;11.00;51.75
71970;BME280;59838;52.152;5.436;2023-04-19T08:20:31;102934.25;;;11.03;49.98
71970;BME280;59838;52.152;5.436;2023-04-19T08:22:59;102937.59;;;11.14;50.63
71970;BME280;59838;52.152;5.436;2023-04-19T08:25:39;102940.06;;;11.26;49.50
71970;BME280;59838;52.152;5.436;2023-04-19T08:28:06;102938.00;;;11.39;50.35
71970;BME280;59838;52.152;5.436;2023-04-19T08:30:32;102943.75;;;11.43;50.09
71970;BME280;59838;52.152;5.436;2023-04-19T08:32:59;102933.09;;;11.36;48.29
71970;BME280;59838;52.152;5.436;2023-04-19T08:35:26;102936.78;;;11.43;47.03
71970;BME280;59838;52.152;5.436;2023-04-19T08:37:53;102938.41;;;11.44;49.11
71970;BME280;59838;52.152;5.436;2023-04-19T08:40:19;102934.75;;;11.47;48.93
71970;BME280;59838;52.152;5.436;2023-04-19T08:42:46;102924.88;;;11.50;48.14
71970;BME280;59838;52.152;5.436;2023-04-19T08:45:15;102920.59;;;11.69;49.11
71970;BME280;59838;52.152;5.436;2023-04-19T08:47:55;102925.13;;;11.67;49.66
71970;BME280;59838;52.152;5.436;2023-04-19T08:50:27;102935.94;;;11.82;49.30
71970;BME280;59838;52.152;5.436;2023-04-19T08:53:04;102918.69;;;11.91;48.79
71970;BME280;59838;52.152;5.436;2023-04-19T08:55:50;102931.56;;;11.63;47.46
71970;BME280;59838;52.152;5.436;2023-04-19T08:58:20;102922.94;;;11.62;47.16
71970;BME280;59838;52.152;5.436;2023-04-19T09:01:07;102927.19;;;11.44;44.26
71970;BME280;59838;52.152;5.436;2023-04-19T09:03:43;102924.03;;;11.40;46.83
71970;BME280;59838;52.152;5.436;2023-04-19T09:06:28;102922.81;;;11.34;47.47
71970;BME280;59838;52.152;5.436;2023-04-19T09:09:16;102923.75;;;11.53;45.12
71970;BME280;59838;52.152;5.436;2023-04-19T09:11:46;102921.97;;;11.73;48.09
71970;BME280;59838;52.152;5.436;2023-04-19T09:14:14;102922.66;;;11.95;46.79
71970;BME280;59838;52.152;5.436;2023-04-19T09:16:42;102918.69;;;12.00;46.22
71970;BME280;59838;52.152;5.436;2023-04-19T09:19:09;102917.28;;;12.06;45.93
71970;BME280;59838;52.152;5.436;2023-04-19T09:21:49;102907.38;;;12.19;44.71
71970;BME280;59838;52.152;5.436;2023-04-19T09:24:17;102914.91;;;12.22;45.79
71970;BME280;59838;52.152;5.436;2023-04-19T09:26:53;102911.38;;;12.14;46.50
71970;BME280;59838;52.152;5.436;2023-04-19T09:29:19;102907.91;;;12.33;45.60
71970;BME280;59838;52.152;5.436;2023-04-19T09:31:56;102901.91;;;12.13;46.97
71970;BME280;59838;52.152;5.436;2023-04-19T09:34:23;102890.69;;;12.40;47.90
71970;BME280;59838;52.152;5.436;2023-04-19T09:36:50;102909.81;;;12.31;47.26
71970;BME280;59838;52.152;5.436;2023-04-19T09:39:34;102892.88;;;12.07;45.91
71970;BME280;59838;52.152;5.436;2023-04-19T09:42:01;102897.41;;;12.05;48.30
71970;BME280;59838;52.152;5.436;2023-04-19T09:44:28;102903.91;;;12.29;48.72
71970;BME280;59838;52.152;5.436;2023-04-19T09:46:58;102895.53;;;12.35;47.13
71970;BME280;59838;52.152;5.436;2023-04-19T09:49:24;102901.06;;;12.22;45.86
71970;BME280;59838;52.152;5.436;2023-04-19T09:52:13;102901.72;;;12.24;47.66
71970;BME280;59838;52.152;5.436;2023-04-19T09:54:40;102913.59;;;12.46;49.38
71970;BME280;59838;52.152;5.436;2023-04-19T09:57:07;102892.63;;;12.38;48.01
71970;BME280;59838;52.152;5.436;2023-04-19T09:59:34;102892.50;;;12.39;47.51
71970;BME280;59838;52.152;5.436;2023-04-19T10:02:00;102896.06;;;12.38;46.24
71970;BME280;59838;52.152;5.436;2023-04-19T10:04:28;102899.28;;;12.50;52.15
71970;BME280;59838;52.152;5.436;2023-04-19T10:07:15;102893.84;;;12.43;46.98
71970;BME280;59838;52.152;5.436;2023-04-19T10:09:48;102899.00;;;12.53;47.80
71970;BME280;59838;52.152;5.436;2023-04-19T10:12:23;102875.34;;;12.65;45.57
71970;BME280;59838;52.152;5.436;2023-04-19T10:14:54;102868.94;;;12.59;45.70
71970;BME280;59838;52.152;5.436;2023-04-19T10:17:24;102882.81;;;12.77;47.14
71970;BME280;59838;52.152;5.436;2023-04-19T10:19:56;102877.69;;;12.86;46.98
71970;BME280;59838;52.152;5.436;2023-04-19T10:22:24;102878.72;;;12.75;45.42
71970;BME280;59838;52.152;5.436;2023-04-19T10:25:11;102874.19;;;12.77;46.94
71970;BME280;59838;52.152;5.436;2023-04-19T10:27:39;102877.75;;;12.76;44.00
71970;BME280;59838;52.152;5.436;2023-04-19T10:30:18;102872.75;;;12.83;48.71
71970;BME280;59838;52.152;5.436;2023-04-19T10:32:51;102871.56;;;12.77;45.80
71970;BME280;59838;52.152;5.436;2023-04-19T10:35:20;102873.38;;;12.94;45.59
71970;BME280;59838;52.152;5.436;2023-04-19T10:38:10;102863.25;;;12.91;44.98
71970;BME280;59838;52.152;5.436;2023-04-19T10:43:17;102870.41;;;13.07;45.28
71970;BME280;59838;52.152;5.436;2023-04-19T10:45:45;102867.13;;;13.05;44.73
71970;BME280;59838;52.152;5.436;2023-04-19T10:56:10;102855.13;;;13.30;41.69
71970;BME280;59838;52.152;5.436;2023-04-19T11:01:31;102844.41;;;13.33;44.86
71970;BME280;59838;52.152;5.436;2023-04-19T11:03:59;102857.50;;;13.42;41.54
71970;BME280;59838;52.152;5.436;2023-04-19T11:06:26;102843.31;;;13.26;40.94
71970;BME280;59838;52.152;5.436;2023-04-19T11:08:53;102845.13;;;13.44;42.71
71970;BME280;59838;52.152;5.436;2023-04-19T11:11:20;102838.09;;;13.26;39.58
71970;BME280;59838;52.152;5.436;2023-04-19T11:13:50;102846.63;;;13.28;38.67
71970;BME280;59838;52.152;5.436;2023-04-19T11:16:16;102824.47;;;13.32;39.60
71970;BME280;59838;52.152;5.436;2023-04-19T11:18:44;102818.16;;;13.61;42.90
71970;BME280;59838;52.152;5.436;2023-04-19T11:21:12;102831.16;;;13.79;40.90
71970;BME280;59838;52.152;5.436;2023-04-19T11:23:39;102822.81;;;13.76;42.54
71970;BME280;59838;52.152;5.436;2023-04-19T11:26:09;102823.38;;;13.61;38.19
71970;BME280;59838;52.152;5.436;2023-04-19T11:28:37;102813.13;;;13.42;40.50
71970;BME280;59838;52.152;5.436;2023-04-19T11:31:05;102813.53;;;13.55;42.43
71970;BME280;59838;52.152;5.436;2023-04-19T11:33:35;102816.50;;;13.60;40.88
71970;BME280;59838;52.152;5.436;2023-04-19T11:36:02;102817.94;;;13.81;40.54
71970;BME280;59838;52.152;5.436;2023-04-19T11:38:29;102798.94;;;13.70;41.26
71970;BME280;59838;52.152;5.436;2023-04-19T11:40:58;102802.88;;;13.75;39.60
71970;BME280;59838;52.152;5.436;2023-04-19T11:43:34;102815.94;;;13.75;35.68
71970;BME280;59838;52.152;5.436;2023-04-19T11:46:07;102785.16;;;13.60;37.48
71970;BME280;59838;52.152;5.436;2023-04-19T11:48:35;102788.53;;;13.79;38.39
71970;BME280;59838;52.152;5.436;2023-04-19T11:51:02;102788.63;;;13.95;42.04
71970;BME280;59838;52.152;5.436;2023-04-19T11:53:32;102775.09;;;14.00;37.33
71970;BME280;59838;52.152;5.436;2023-04-19T11:56:05;102778.47;;;13.92;36.86
71970;BME280;59838;52.152;5.436;2023-04-19T11:58:37;102780.41;;;13.82;36.09
71970;BME280;59838;52.152;5.436;2023-04-19T12:01:10;102772.72;;;13.80;34.97
71970;BME280;59838;52.152;5.436;2023-04-19T12:03:43;102770.72;;;13.74;35.67
71970;BME280;59838;52.152;5.436;2023-04-19T12:06:17;102779.59;;;13.89;36.72
71970;BME280;59838;52.152;5.436;2023-04-19T12:08:46;102761.97;;;13.83;38.82
71970;BME280;59838;52.152;5.436;2023-04-19T12:11:14;102770.59;;;13.84;36.85
71970;BME280;59838;52.152;5.436;2023-04-19T12:13:40;102758.78;;;14.06;37.66
71970;BME280;59838;52.152;5.436;2023-04-19T12:16:10;102783.41;;;14.03;33.73
71970;BME280;59838;52.152;5.436;2023-04-19T12:18:45;102775.72;;;13.94;36.31
71970;BME280;59838;52.152;5.436;2023-04-19T12:21:28;102770.03;;;14.06;35.53
71970;BME280;59838;52.152;5.436;2023-04-19T12:23:59;102767.47;;;14.23;38.73
71970;BME280;59838;52.152;5.436;2023-04-19T12:26:28;102758.34;;;14.27;36.44
71970;BME280;59838;52.152;5.436;2023-04-19T12:28:55;102758.50;;;14.25;36.38
71970;BME280;59838;52.152;5.436;2023-04-19T12:31:22;102743.78;;;14.24;37.54
71970;BME280;59838;52.152;5.436;2023-04-19T12:33:49;102754.88;;;14.18;38.05
71970;BME280;59838;52.152;5.436;2023-04-19T12:36:16;102769.03;;;14.07;36.02
71970;BME280;59838;52.152;5.436;2023-04-19T12:38:42;102745.56;;;14.16;36.23
71970;BME280;59838;52.152;5.436;2023-04-19T12:41:09;102743.94;;;14.15;41.20
71970;BME280;59838;52.152;5.436;2023-04-19T12:43:36;102748.22;;;14.32;41.70
71970;BME280;59838;52.152;5.436;2023-04-19T12:46:03;102750.66;;;14.25;40.50
71970;BME280;59838;52.152;5.436;2023-04-19T12:48:30;102748.84;;;14.26;39.40
71970;BME280;59838;52.152;5.436;2023-04-19T12:50:56;102742.16;;;14.32;41.81
71970;BME280;59838;52.152;5.436;2023-04-19T12:53:23;102739.41;;;14.41;38.01
71970;BME280;59838;52.152;5.436;2023-04-19T12:55:50;102724.38;;;14.35;37.92
71970;BME280;59838;52.152;5.436;2023-04-19T12:58:17;102726.00;;;14.36;38.44
71970;BME280;59838;52.152;5.436;2023-04-19T13:00:43;102731.38;;;14.26;38.91
71970;BME280;59838;52.152;5.436;2023-04-19T13:03:10;102727.97;;;14.42;40.15
71970;BME280;59838;52.152;5.436;2023-04-19T13:05:38;102713.59;;;14.38;37.54
71970;BME280;59838;52.152;5.436;2023-04-19T13:08:05;102705.94;;;14.53;37.66
71970;BME280;59838;52.152;5.436;2023-04-19T13:10:31;102710.81;;;14.48;40.05
71970;BME280;59838;52.152;5.436;2023-04-19T13:12:57;102700.16;;;14.41;37.72